KRCA/RCA METAR and TAF weather

Enter ICAO airport designator
Station Type Date Time Source
KRCA METAR 2021/07/29 00:56 UTC NOAA

KRCA 290056Z AUTO 03015G21KT 10SM CLR 35/07 A3007 RMK AO2 SLP151 T03470069 PNO $


Station Type Date Time Source
KRCA Decoded METAR 2021/07/29 00:56 UTC NOAA

Ellsworth Air Force Base, SD, United States (KRCA) 44-09N 103-06W
Jul 28, 2021 - 08:56 PM EDT / 2021.07.29 0056 UTC
Wind: from the NNE (030 degrees) at 17 MPH (15 KT) gusting to 24 MPH (21 KT):0
Visibility: 10 mile(s):0
Sky conditions: clear
Temperature: 94.5 F (34.7 C)
Dew Point: 44.4 F (6.9 C)
Relative Humidity: 17%
Pressure (altimeter): 30.07 in. Hg (1018 hPa)
ob: KRCA 290056Z AUTO 03015G21KT 10SM CLR 35/07 A3007 RMK AO2 SLP151 T03470069 PNO
cycle: 1

Station Type Date Time Source
KRCA TAF 2021/07/28 20:57 UTC NOAA

TAF
AMD KRCA 282049Z 2820/3001 01015G20KT 9999 FEW150 QNH3002INS
BECMG 2901/2902 03009KT 9999 FEW080 SCT150 QNH3006INS
BECMG 2913/2914 10010G15KT 9999 SCT080 QNH3020INS TX40/2821Z TN19/2912Z

Example: see airport list